Jamestown, Colorado
Current Conditions -  °F | °C
As of 9:57 PM on Saturday 22 Nov 2014 (Local Time) from KBDU Reporting Station
Scattered Clouds Scattered Clouds  
Wind Chill: 45°   Ceiling: Unl
Heat Index: 48°   Visibility: 10mi
Dew Point: 25°   Wind: 8mph
Humidity: 40%   Direction: 260°W
Pressure: 29.54"   Gusts: NA
Location:  40.12°N, 105.39°W
Report Text: KBDU 230457Z AUTO 26007KT 242V302 10SM SCT075 09/M04 A2954 RMK AO2
Loading
Personal Weather Stations






























Interactive Weather Map New forecast layout! Learn more

10-Day Weather Forecast

Advertisements
Track Severe Weather on mobile